Latest Weather Observations for Gladstone Airport

IDQ60801

Issued at 12:42 pm EST Thursday 1 October 2020 (issued every 10 minutes, with the page automatically refreshed every 10 minutes)

About weather observations | Map of weather stations | Latest weather observations for QLD | Other Formats
Station Details ID: 039326 Name: GLADSTONE AIRPORT Lat: -23.87 Lon: 151.22 Height: 16.6 m
Data from the previous 72 hours. | See also: Recent months at Gladstone Airport
Date/Time
EST
Temp
°C
App
Temp
°C
Dew
Point
°C
Rel
Hum
%
Delta-T
°C
Wind Press
QNH
hPa
Press
MSL
hPa
Rain since
9am
mm
Dir  Spd
km/h
Gust
km/h
Spd
kts
Gust
kts
01/12:30pm 24.5 22.1 12.8 48 6.7 NE 17 24 9 13 1018.7 1018.7 0.0
01/12:00pm 24.7 22.2 13.6 50 6.5 NE 19 24 10 13 1019.1 1019.1 0.0
01/11:30am 25.1 22.9 13.3 48 6.9 NE 17 26 9 14 1019.4 1019.4 0.0
01/11:00am 25.4 23.4 13.9 49 6.8 NE 17 24 9 13 1019.8 1019.8 0.0
01/10:30am 25.4 24.2 12.9 45 7.3 NNW 11 17 6 9 1020.4 1020.4 0.0
01/10:00am 23.9 23.4 12.5 49 6.5 ENE 7 11 4 6 1020.6 1020.6 0.0
01/09:30am 23.9 22.7 14.0 54 5.8 NE 13 17 7 9 1020.3 1020.3 0.0
01/09:00am 23.4 22.1 13.8 54 5.6 NE 13 19 7 10 1020.4 1020.4 0.0
01/08:30am 23.0 22.5 13.8 56 5.4 ENE 9 20 5 11 1020.2 1020.2 0.0
01/08:00am 22.2 22.2 13.5 57 5.0 SE 6 9 3 5 1020.1 1020.1 0.0
01/07:30am 19.8 19.0 12.8 64 4.0 SSW 9 13 5 7 1019.9 1019.9 0.0
01/07:00am 17.8 16.7 12.0 69 3.2 SW 9 17 5 9 1019.7 1019.7 0.0
01/06:30am 16.3 15.2 11.9 75 2.4 SSW 9 11 5 6 1019.2 1019.2 0.0
01/06:00am 15.3 15.1 11.7 79 1.9 SSW 4 9 2 5 1018.9 1018.9 0.0
01/05:30am 15.1 14.2 11.3 78 2.0 SSW 7 13 4 7 1018.8 1018.8 0.0
01/05:00am 15.2 13.5 11.2 77 2.1 SSW 11 13 6 7 1018.5 1018.5 0.0
01/04:30am 15.3 14.6 11.5 78 2.0 SW 6 11 3 6 1018.1 1018.1 0.0
01/04:00am 15.5 13.9 11.7 78 2.0 SW 11 15 6 8 1018.0 1018.0 0.0
01/03:30am 15.8 14.3 11.8 77 2.2 SW 11 15 6 8 1017.9 1017.9 0.0
01/03:00am 15.9 14.3 11.5 75 2.4 SSW 11 13 6 7 1017.8 1017.8 0.0
01/02:30am 16.4 15.2 11.6 73 2.6 SSW 9 13 5 7 1018.0 1018.0 0.0
01/02:00am 17.0 16.2 11.7 71 2.9 SSW 7 9 4 5 1018.2 1018.2 0.0
01/01:30am 17.3 17.1 11.8 70 3.0 SW 4 7 2 4 1018.5 1018.5 0.0
01/01:00am 17.3 16.2 11.8 70 3.0 SW 9 13 5 7 1018.8 1018.8 0.0
01/12:30am 17.9 16.9 12.4 70 3.1 SSW 9 11 5 6 1019.3 1019.3 0.0
01/12:00am 18.1 17.0 12.1 68 3.3 S 9 9 5 5 1019.4 1019.4 0.0
 
Date/Time
EST
Temp
°C
App
Temp
°C
Dew
Point
°C
Rel
Hum
%
Delta-T
°C
Wind Press
QNH
hPa
Press
MSL
hPa
Rain since
9am
mm
Dir  Spd
km/h
Gust
km/h
Spd
kts
Gust
kts
30/11:30pm 20.5 19.6 12.7 61 4.4 E 9 13 5 7 1019.5 1019.5 0.0
30/11:00pm 20.7 19.8 12.7 60 4.5 ENE 9 13 5 7 1019.6 1019.6 0.0
30/10:30pm 20.8 19.9 12.5 59 4.7 ENE 9 13 5 7 1019.8 1019.8 0.0
30/10:00pm 21.0 19.4 12.7 59 4.7 ENE 13 17 7 9 1019.8 1019.8 0.0
30/09:30pm 21.1 20.1 13.3 61 4.5 E 11 17 6 9 1020.0 1020.0 0.0
30/09:00pm 20.7 19.9 12.9 61 4.4 ESE 9 11 5 6 1020.2 1020.2 0.0
30/08:30pm 21.0 20.2 12.9 60 4.6 ESE 9 13 5 7 1020.0 1020.0 0.0
30/08:00pm 21.0 19.8 12.9 60 4.6 E 11 13 6 7 1019.6 1019.6 0.0
30/07:30pm 21.0 19.3 12.4 58 4.8 E 13 19 7 10 1019.1 1019.1 0.0
30/07:00pm 21.1 19.4 12.5 58 4.8 E 13 20 7 11 1018.6 1018.6 0.0
30/06:30pm 21.0 18.8 12.2 57 4.9 E 15 20 8 11 1018.1 1018.1 0.0
30/06:00pm 21.3 18.4 12.4 57 5.0 E 19 26 10 14 1017.7 1017.7 0.0
30/05:30pm 21.7 18.9 13.1 58 4.9 ENE 20 28 11 15 1017.6 1017.6 0.0
30/05:00pm 22.4 19.6 12.6 54 5.6 ENE 19 26 10 14 1017.4 1017.4 0.0
30/04:30pm 23.1 19.5 11.8 49 6.4 ENE 22 30 12 16 1017.4 1017.4 0.0
30/04:00pm 23.1 20.0 12.1 50 6.2 ENE 20 26 11 14 1017.4 1017.4 0.0
30/03:30pm 23.2 19.8 12.5 51 6.1 E 22 32 12 17 1017.5 1017.5 0.0
30/03:00pm 23.6 20.3 12.9 51 6.2 E 22 28 12 15 1017.6 1017.6 0.0
30/02:30pm 23.8 20.5 11.5 46 6.9 E 20 30 11 16 1017.9 1017.9 0.0
30/02:00pm 23.7 20.9 12.7 50 6.3 ENE 19 28 10 15 1018.2 1018.2 0.0
30/01:30pm 24.0 20.5 11.0 44 7.3 E 20 28 11 15 1018.5 1018.5 0.0
30/01:00pm 23.0 19.6 10.4 45 6.9 ENE 19 28 10 15 1018.9 1018.9 0.0
30/12:30pm 24.1 20.7 11.1 44 7.3 ENE 20 30 11 16 1019.1 1019.1 0.0
30/12:00pm 23.4 20.2 11.1 46 6.8 ENE 19 28 10 15 1019.5 1019.5 0.0
30/11:30am 25.3 22.5 13.2 47 7.1 ENE 20 32 11 17 1019.8 1019.8 0.0
30/11:00am 24.0 20.8 12.0 47 6.8 ENE 20 26 11 14 1020.3 1020.3 0.0
30/10:30am 23.7 20.3 11.1 45 7.0 ENE 20 32 11 17 1020.6 1020.6 0.0
30/10:00am 23.8 21.4 12.8 50 6.3 ENE 17 30 9 16 1020.7 1020.7 0.0
30/09:30am 22.8 18.9 12.1 51 6.1 ESE 24 32 13 17 1021.1 1021.1 0.0
30/09:00am 23.2 19.8 11.3 47 6.6 E 20 28 11 15 1021.1 1021.1 0.0
30/08:30am 22.4 20.1 11.8 51 6.0 ESE 15 22 8 12 1021.2 1021.2 0.0
30/08:00am 21.8 19.8 11.5 52 5.7 SE 13 19 7 10 1021.2 1021.2 0.0
30/07:30am 20.6 19.4 11.5 56 5.0 SE 9 17 5 9 1020.9 1020.9 0.0
30/07:00am 18.2 17.3 10.8 62 4.0 SW 6 7 3 4 1020.6 1020.6 0.0
30/06:30am 17.1 16.0 10.5 65 3.5 SSW 7 9 4 5 1020.5 1020.5 0.0
30/06:00am 16.0 14.4 10.3 69 3.0 SSW 9 13 5 7 1020.1 1020.1 0.0
30/05:30am 16.4 14.9 10.5 68 3.1 SSW 9 11 5 6 1020.0 1020.0 0.0
30/05:00am 16.5 15.0 10.6 68 3.1 SSW 9 13 5 7 1019.7 1019.7 0.0
30/04:30am 17.1 15.6 10.5 65 3.5 SSW 9 11 5 6 1019.7 1019.7 0.0
30/04:00am 16.9 15.7 10.3 65 3.5 SSW 7 9 4 5 1019.7 1019.7 0.0
30/03:30am 17.5 16.0 10.4 63 3.8 S 9 13 5 7 1019.7 1019.7 0.0
30/03:00am 16.6 15.1 10.5 67 3.2 S 9 11 5 6 1019.6 1019.6 0.0
30/02:30am 17.0 15.5 10.4 65 3.5 SSE 9 13 5 7 1019.6 1019.6 0.0
30/02:00am 17.3 15.8 10.4 64 3.7 SE 9 11 5 6 1020.1 1020.1 0.0
30/01:30am 17.9 16.4 10.5 62 4.0 SE 9 13 5 7 1020.4 1020.4 0.0
30/01:00am 18.2 16.8 10.8 62 4.0 SSE 9 15 5 8 1021.0 1021.0 0.0
30/12:30am 18.5 17.1 10.8 61 4.2 SSE 9 11 5 6 1021.3 1021.3 0.0
30/12:00am 18.9 17.5 11.0 60 4.3 SSE 9 15 5 8 1021.8 1021.8 0.0
 
Date/Time
EST
Temp
°C
App
Temp
°C
Dew
Point
°C
Rel
Hum
%
Delta-T
°C
Wind Press
QNH
hPa
Press
MSL
hPa
Rain since
9am
mm
Dir  Spd
km/h
Gust
km/h
Spd
kts
Gust
kts
29/11:30pm 19.5 17.8 11.3 59 4.5 SSE 11 17 6 9 1021.9 1021.9 0.0
29/11:00pm 19.8 17.8 11.6 59 4.5 SE 13 19 7 10 1021.9 1021.9 0.0
29/10:30pm 20.1 18.2 11.8 59 4.6 SE 13 19 7 10 1022.0 1022.0 0.0
29/10:00pm 20.7 18.2 12.4 59 4.7 SE 17 26 9 14 1021.8 1021.8 0.0
29/09:30pm 20.8 18.0 13.3 62 4.3 ESE 20 32 11 17 1021.6 1021.6 0.0
29/09:00pm 21.4 17.4 11.7 54 5.4 ESE 24 37 13 20 1021.6 1021.6 0.0
29/08:30pm 21.4 17.3 11.4 53 5.5 ESE 24 32 13 17 1021.4 1021.4 0.0
29/08:00pm 21.4 17.2 11.1 52 5.7 E 24 32 13 17 1021.4 1021.4 0.0
29/07:30pm 21.4 17.6 11.1 52 5.7 ESE 22 32 12 17 1021.0 1021.0 0.0
29/07:00pm 21.4 17.2 11.1 52 5.7 E 24 33 13 18 1020.8 1020.8 0.0
29/06:30pm 21.6 17.5 11.3 52 5.7 E 24 37 13 20 1020.6 1020.6 0.0
29/06:00pm 21.9 17.7 12.5 55 5.3 E 26 37 14 20 1020.2 1020.2 0.0
29/05:30pm 21.9 18.3 13.0 57 5.1 E 24 32 13 17 1019.9 1019.9 0.0
29/05:00pm 22.2 17.7 12.7 55 5.4 E 28 37 15 20 1019.8 1019.8 0.0
29/04:30pm 22.3 17.5 11.7 51 5.9 E 28 37 15 20 1019.7 1019.7 0.0
29/04:00pm 23.0 18.4 12.3 51 6.1 E 28 39 15 21 1019.3 1019.3 0.0
29/03:30pm 23.2 18.8 12.8 52 6.0 E 28 43 15 23 1019.2 1019.2 0.0
29/03:00pm 23.2 18.7 12.5 51 6.1 E 28 37 15 20 1019.2 1019.2 0.0
29/02:30pm 23.6 19.8 13.5 53 5.9 E 26 37 14 20 1019.5 1019.5 0.0
29/02:00pm 23.5 19.0 13.9 55 5.6 E 30 44 16 24 1019.9 1019.9 0.0
29/01:30pm 23.9 19.0 11.3 45 7.1 ENE 28 39 15 21 1020.3 1020.3 0.0
29/01:00pm 25.3 20.7 12.2 44 7.5 E 28 37 15 20 1020.8 1020.8 0.0
29/12:30pm 24.5 19.2 10.0 40 8.0 E 28 39 15 21 1021.2 1021.2 0.0
29/12:00pm 24.5 19.0 11.8 45 7.2 E 32 43 17 23 1021.6 1021.6 0.0
29/11:30am 24.3 18.9 12.9 49 6.6 E 33 43 18 23 1021.9 1021.9 0.0
29/11:00am 24.4 19.3 12.0 46 7.0 ESE 30 41 16 22 1022.4 1022.4 0.0
29/10:30am 25.0 20.0 10.8 41 7.9 ESE 28 41 15 22 1022.7 1022.7 0.0
29/10:00am 24.4 20.0 14.2 53 6.0 ESE 30 37 16 20 1022.9 1022.9 0.0
29/09:30am 24.2 20.4 13.7 52 6.1 ESE 26 37 14 20 1023.0 1023.0 0.0
29/09:00am 23.2 19.1 13.7 55 5.5 E 28 39 15 21 1022.9 1022.9 0.0
29/08:30am 22.3 19.6 13.4 57 5.1 SE 20 32 11 17 1022.9 1022.9 0.0
29/08:00am 21.4 19.5 13.1 59 4.7 SE 15 20 8 11 1022.7 1022.7 0.0
29/07:30am 20.4 19.0 13.4 64 4.0 SSE 13 20 7 11 1022.5 1022.5 0.0
29/07:00am 18.2 17.8 12.9 71 3.0 SSW 7 9 4 5 1022.1 1022.1 0.0
29/06:30am 17.3 16.7 12.4 73 2.7 SSW 7 11 4 6 1021.5 1021.5 0.0
29/06:00am 16.5 15.8 11.9 74 2.5 SSW 7 11 4 6 1021.2 1021.2 0.0
29/05:30am 17.9 17.4 12.6 71 3.0 SSE 7 13 4 7 1021.0 1021.0 0.0
29/05:00am 17.9 17.0 12.6 71 2.9 SSE 9 17 5 9 1020.5 1020.5 0.0
29/04:30am 18.1 16.3 12.1 68 3.3 SSE 13 17 7 9 1020.3 1020.3 0.0
29/04:00am 18.1 16.6 11.9 67 3.4 SSE 11 15 6 8 1020.3 1020.3 0.0
29/03:30am 18.1 16.0 11.0 63 3.8 SE 13 19 7 10 1020.2 1020.2 0.0
29/03:00am 18.2 16.1 11.0 63 3.9 SSE 13 17 7 9 1020.3 1020.3 0.0
29/02:30am 18.4 16.3 11.0 62 4.0 SSE 13 19 7 10 1020.4 1020.4 0.0
29/02:00am 18.5 17.2 11.3 63 3.9 SSE 9 13 5 7 1020.6 1020.6 0.0
29/01:30am 18.6 17.3 11.2 62 4.0 SSE 9 13 5 7 1020.9 1020.9 0.0
29/01:00am 18.8 17.5 11.1 61 4.2 SE 9 11 5 6 1021.1 1021.1 0.0
29/12:30am 19.1 17.3 10.9 59 4.5 SSE 11 15 6 8 1021.5 1021.5 0.0
29/12:00am 19.5 17.4 11.3 59 4.5 SE 13 19 7 10 1021.6 1021.6 0.0
 
Date/Time
EST
Temp
°C
App
Temp
°C
Dew
Point
°C
Rel
Hum
%
Delta-T
°C
Wind Press
QNH
hPa
Press
MSL
hPa
Rain since
9am
mm
Dir  Spd
km/h
Gust
km/h
Spd
kts
Gust
kts
28/11:30pm 19.7 17.7 11.5 59 4.5 SE 13 17 7 9 1021.9 1021.9 0.0
28/11:00pm 20.2 18.3 11.9 59 4.6 SE 13 19 7 10 1022.1 1022.1 0.0
28/10:30pm 21.1 18.0 11.7 55 5.2 ESE 19 30 10 16 1022.1 1022.1 0.0
28/10:00pm 21.4 17.8 11.7 54 5.4 ESE 22 32 12 17 1021.9 1021.9 0.0
28/09:30pm 21.7 18.2 12.3 55 5.3 ESE 22 32 12 17 1022.1 1022.1 0.0
28/09:00pm 21.7 18.6 12.3 55 5.3 ESE 20 28 11 15 1022.1 1022.1 0.0
28/08:30pm 21.7 18.8 12.8 57 5.1 E 20 28 11 15 1021.9 1021.9 0.0
28/08:00pm 21.5 18.7 12.6 57 5.0 E 19 24 10 13 1021.6 1021.6 0.0
28/07:30pm 21.4 18.4 12.0 55 5.3 ESE 19 24 10 13 1021.6 1021.6 0.0
28/07:00pm 21.4 18.2 11.4 53 5.5 ESE 19 26 10 14 1021.3 1021.3 0.0
28/06:30pm 21.7 18.8 11.1 51 5.9 E 17 24 9 13 1021.0 1021.0 0.0
28/06:00pm 21.6 18.9 11.6 53 5.6 E 17 22 9 12 1020.5 1020.5 0.0
28/05:30pm 22.0 18.7 11.7 52 5.8 ENE 20 24 11 13 1020.1 1020.1 0.0
28/05:00pm 22.5 19.1 11.3 49 6.2 ENE 20 28 11 15 1019.8 1019.8 0.0
28/04:30pm 23.1 18.9 11.2 47 6.6 E 24 30 13 16 1019.4 1019.4 0.0
28/04:00pm 23.2 18.7 11.3 47 6.6 ENE 26 33 14 18 1019.3 1019.3 0.0
28/03:30pm 23.2 18.6 10.9 46 6.8 ENE 26 35 14 19 1019.2 1019.2 0.0
28/03:00pm 23.7 18.7 11.1 45 7.0 ENE 28 35 15 19 1019.2 1019.2 0.0
28/02:30pm 23.8 19.4 11.8 47 6.8 ENE 26 39 14 21 1019.5 1019.5 0.0
28/02:00pm 24.6 20.8 12.5 46 6.9 ENE 24 35 13 19 1019.9 1019.9 0.0
28/01:30pm 24.4 20.3 12.7 48 6.7 ENE 26 35 14 19 1020.3 1020.3 0.0
28/01:00pm 24.2 20.0 12.5 48 6.7 ENE 26 39 14 21 1020.7 1020.7 0.0

Other formats

Comma delimited format used in spreadsheet applications
http://www.bom.gov.au/fwo/IDQ60801/IDQ60801.94381.axf

JavaScript Object Notation format (JSON) in row-major order
http://www.bom.gov.au/fwo/IDQ60801/IDQ60801.94381.json

Data quality

Most of these data are generated automatically and are frequently updated. Quality checks on data are not normally performed. It is possible for incorrect values to appear. Refer to information at About Latest Weather Observations and please check the disclaimer before using these data.